Aerbrava en el facebook Aerbrava en el twitter Aerbrava Google+ Aerbrava instagram Aerbrava en el youtube Aerbrava tumblr Aerbrava flikr Aerbrava pinterest
Aerbrava in English aerbrava en Español
Escola de Pilots
Telèfon 972234126 972 23 41 26
 
Aerbrava in English aerbrava en Español
Aerbrava - meteorologia

Informació meteorològica aeronàutica

 

En aquest apartat apareix la informació meteorològica aeronàutica que és utilitzada a les pràctiques dels alumnes de l’Escola de Pilots del nostre centre durant la seva formació, pel que pot no ser actual i s’hauria d’utilitzar pel seu propi compte i risc. AERBRAVA no es fa responsable del seu ús.

 

TEMPS ACTUAL

Satèl·lit Meteorològic

sat24.com

Servei Meteorològic de Catalunya

 

LEGE 191530Z 19012KT 160V220 CAVOK 26/16 Q1012
LEGE 191500Z 19013KT 160V220 CAVOK 26/16 Q1012
LEGE 191430Z 19013KT 160V220 CAVOK 26/16 Q1012
LEGE 191400Z 19014KT 150V230 CAVOK 26/16 Q1012
LEGE 191330Z 20015KT 170V230 CAVOK 27/16 Q1012
LEGE 191300Z 18013KT 150V230 CAVOK 28/15 Q1012
LEGE 191230Z 19014KT 150V210 CAVOK 28/14 Q1012
LEGE 191200Z 20008KT 160V260 CAVOK 29/13 Q1012
TAF LEGE 191100Z 1912/2012 VRB03KT 9999 FEW030 TX29/1913Z TN16/2006Z   BECMG 1912/1914 17010KT   BECMG 1919/1921 VRB03KT   PROB30   TEMPO 1922/2006 3000 BR BKN010

Aviation Weather

 
Aerbrava en el facebook Aerbrava en el twitter Aerbrava Google+ Aerbrava instagram Aerbrava en el youtube Aerbrava tumblr Aerbrava flikr Aerbrava pinterest

¡CSS Vàlid!